sensor_id;sensor_type;location;lat;lon;timestamp;temperature;humidity
22917;DHT22;11624;53.250;7.456;2023-05-14T00:01:43;17.80;53.36
22917;DHT22;11624;53.250;7.456;2023-05-14T00:04:12;17.80;53.30
22917;DHT22;11624;53.250;7.456;2023-05-14T00:06:40;17.80;53.17
22917;DHT22;11624;53.250;7.456;2023-05-14T00:09:09;17.77;53.15
22917;DHT22;11624;53.250;7.456;2023-05-14T00:11:37;17.73;53.20
22917;DHT22;11624;53.250;7.456;2023-05-14T00:14:07;17.70;53.20
22917;DHT22;11624;53.250;7.456;2023-05-14T00:16:35;17.68;53.15
22917;DHT22;11624;53.250;7.456;2023-05-14T00:19:04;17.66;53.10
22917;DHT22;11624;53.250;7.456;2023-05-14T00:21:32;17.66;53.04
22917;DHT22;11624;53.250;7.456;2023-05-14T00:24:00;17.66;52.98
22917;DHT22;11624;53.250;7.456;2023-05-14T00:26:29;17.63;52.99
22917;DHT22;11624;53.250;7.456;2023-05-14T00:28:57;17.60;53.00
22917;DHT22;11624;53.250;7.456;2023-05-14T00:31:27;17.56;53.01
22917;DHT22;11624;53.250;7.456;2023-05-14T00:33:55;17.54;53.11
22917;DHT22;11624;53.250;7.456;2023-05-14T00:36:23;17.51;53.10
22917;DHT22;11624;53.250;7.456;2023-05-14T00:38:52;17.48;53.17
22917;DHT22;11624;53.250;7.456;2023-05-14T00:41:21;17.48;53.14
22917;DHT22;11624;53.250;7.456;2023-05-14T00:43:49;17.45;53.12
22917;DHT22;11624;53.250;7.456;2023-05-14T00:46:17;17.39;53.23
22917;DHT22;11624;53.250;7.456;2023-05-14T00:48:48;17.35;53.30
22917;DHT22;11624;53.250;7.456;2023-05-14T00:51:17;17.33;53.56
22917;DHT22;11624;53.250;7.456;2023-05-14T00:53:46;17.32;53.46
22917;DHT22;11624;53.250;7.456;2023-05-14T00:56:15;17.33;53.53
22917;DHT22;11624;53.250;7.456;2023-05-14T00:58:43;17.33;53.45
22917;DHT22;11624;53.250;7.456;2023-05-14T01:01:11;17.30;53.46
22917;DHT22;11624;53.250;7.456;2023-05-14T01:03:41;17.28;53.57
22917;DHT22;11624;53.250;7.456;2023-05-14T01:06:16;17.25;53.31
22917;DHT22;11624;53.250;7.456;2023-05-14T01:08:52;17.28;53.34
22917;DHT22;11624;53.250;7.456;2023-05-14T01:11:27;17.28;53.45
22917;DHT22;11624;53.250;7.456;2023-05-14T01:14:02;17.29;53.27
22917;DHT22;11624;53.250;7.456;2023-05-14T01:16:33;17.28;53.72
22917;DHT22;11624;53.250;7.456;2023-05-14T01:19:04;17.29;53.78
22917;DHT22;11624;53.250;7.456;2023-05-14T01:21:42;17.26;53.31
22917;DHT22;11624;53.250;7.456;2023-05-14T01:24:10;17.28;53.77
22917;DHT22;11624;53.250;7.456;2023-05-14T01:26:38;17.29;53.76
22917;DHT22;11624;53.250;7.456;2023-05-14T01:29:10;17.29;53.49
22917;DHT22;11624;53.250;7.456;2023-05-14T01:31:41;17.31;53.62
22917;DHT22;11624;53.250;7.456;2023-05-14T01:34:11;17.31;53.71
22917;DHT22;11624;53.250;7.456;2023-05-14T01:36:42;17.33;53.59
22917;DHT22;11624;53.250;7.456;2023-05-14T01:39:12;17.31;53.76
22917;DHT22;11624;53.250;7.456;2023-05-14T01:41:41;17.28;53.75
22917;DHT22;11624;53.250;7.456;2023-05-14T01:44:10;17.25;53.76
22917;DHT22;11624;53.250;7.456;2023-05-14T01:46:38;17.21;53.77
22917;DHT22;11624;53.250;7.456;2023-05-14T01:49:07;17.17;53.75
22917;DHT22;11624;53.250;7.456;2023-05-14T01:51:35;17.15;53.81
22917;DHT22;11624;53.250;7.456;2023-05-14T01:54:04;17.14;53.75
22917;DHT22;11624;53.250;7.456;2023-05-14T01:56:33;17.10;53.75
22917;DHT22;11624;53.250;7.456;2023-05-14T01:59:01;17.07;53.83
22917;DHT22;11624;53.250;7.456;2023-05-14T02:01:29;17.06;53.78
22917;DHT22;11624;53.250;7.456;2023-05-14T02:03:57;17.03;53.71
22917;DHT22;11624;53.250;7.456;2023-05-14T02:06:26;17.00;53.68
22917;DHT22;11624;53.250;7.456;2023-05-14T02:08:55;16.98;53.68
22917;DHT22;11624;53.250;7.456;2023-05-14T02:11:24;16.93;53.63
22917;DHT22;11624;53.250;7.456;2023-05-14T02:13:53;16.89;53.64
22917;DHT22;11624;53.250;7.456;2023-05-14T02:16:21;16.87;53.57
22917;DHT22;11624;53.250;7.456;2023-05-14T02:18:50;16.80;53.58
22917;DHT22;11624;53.250;7.456;2023-05-14T02:21:18;16.78;53.59
22917;DHT22;11624;53.250;7.456;2023-05-14T02:23:46;16.75;53.61
22917;DHT22;11624;53.250;7.456;2023-05-14T02:26:15;16.73;53.55
22917;DHT22;11624;53.250;7.456;2023-05-14T02:28:45;16.69;53.48
22917;DHT22;11624;53.250;7.456;2023-05-14T02:31:13;16.66;53.58
22917;DHT22;11624;53.250;7.456;2023-05-14T02:33:43;16.65;53.51
22917;DHT22;11624;53.250;7.456;2023-05-14T02:36:11;16.61;53.58
22917;DHT22;11624;53.250;7.456;2023-05-14T02:38:39;16.56;53.69
22917;DHT22;11624;53.250;7.456;2023-05-14T02:41:07;16.54;53.83
22917;DHT22;11624;53.250;7.456;2023-05-14T02:43:35;16.50;54.07
22917;DHT22;11624;53.250;7.456;2023-05-14T02:46:05;16.49;54.11
22917;DHT22;11624;53.250;7.456;2023-05-14T02:48:33;16.47;54.11
22917;DHT22;11624;53.250;7.456;2023-05-14T02:51:01;16.45;54.15
22917;DHT22;11624;53.250;7.456;2023-05-14T02:53:29;16.41;54.35
22917;DHT22;11624;53.250;7.456;2023-05-14T02:55:57;16.40;54.41
22917;DHT22;11624;53.250;7.456;2023-05-14T02:58:25;16.40;54.37
22917;DHT22;11624;53.250;7.456;2023-05-14T03:00:54;16.39;54.44
22917;DHT22;11624;53.250;7.456;2023-05-14T03:03:24;16.36;54.36
22917;DHT22;11624;53.250;7.456;2023-05-14T03:05:53;16.33;54.44
22917;DHT22;11624;53.250;7.456;2023-05-14T03:08:21;16.28;54.67
22917;DHT22;11624;53.250;7.456;2023-05-14T03:10:49;16.26;54.75
22917;DHT22;11624;53.250;7.456;2023-05-14T03:13:17;16.26;54.81
22917;DHT22;11624;53.250;7.456;2023-05-14T03:15:46;16.26;54.80
22917;DHT22;11624;53.250;7.456;2023-05-14T03:18:14;16.26;54.74
22917;DHT22;11624;53.250;7.456;2023-05-14T03:20:46;16.26;54.65
22917;DHT22;11624;53.250;7.456;2023-05-14T03:23:14;16.25;54.64
22917;DHT22;11624;53.250;7.456;2023-05-14T03:25:42;16.22;54.60
22917;DHT22;11624;53.250;7.456;2023-05-14T03:28:10;16.24;54.55
22917;DHT22;11624;53.250;7.456;2023-05-14T03:30:38;16.21;54.47
22917;DHT22;11624;53.250;7.456;2023-05-14T03:33:06;16.19;54.44
22917;DHT22;11624;53.250;7.456;2023-05-14T03:35:34;16.19;54.49
22917;DHT22;11624;53.250;7.456;2023-05-14T03:38:04;16.17;54.41
22917;DHT22;11624;53.250;7.456;2023-05-14T03:40:33;16.15;54.52
22917;DHT22;11624;53.250;7.456;2023-05-14T03:43:01;16.13;54.59
22917;DHT22;11624;53.250;7.456;2023-05-14T03:45:29;16.08;54.71
22917;DHT22;11624;53.250;7.456;2023-05-14T03:47:58;16.04;54.88
22917;DHT22;11624;53.250;7.456;2023-05-14T03:50:26;15.99;55.14
22917;DHT22;11624;53.250;7.456;2023-05-14T03:52:54;15.95;55.58
22917;DHT22;11624;53.250;7.456;2023-05-14T03:55:24;16.01;55.40
22917;DHT22;11624;53.250;7.456;2023-05-14T03:57:52;16.03;55.29
22917;DHT22;11624;53.250;7.456;2023-05-14T04:00:20;16.02;55.33
22917;DHT22;11624;53.250;7.456;2023-05-14T04:02:50;16.04;55.48
22917;DHT22;11624;53.250;7.456;2023-05-14T04:05:18;16.06;55.53
22917;DHT22;11624;53.250;7.456;2023-05-14T04:07:46;16.08;55.44
22917;DHT22;11624;53.250;7.456;2023-05-14T04:10:14;16.11;55.49
22917;DHT22;11624;53.250;7.456;2023-05-14T04:12:44;16.13;55.49
22917;DHT22;11624;53.250;7.456;2023-05-14T04:15:12;16.14;55.58
22917;DHT22;11624;53.250;7.456;2023-05-14T04:17:41;16.16;55.59
22917;DHT22;11624;53.250;7.456;2023-05-14T04:20:11;16.19;55.56
22917;DHT22;11624;53.250;7.456;2023-05-14T04:22:39;16.26;55.55
22917;DHT22;11624;53.250;7.456;2023-05-14T04:25:08;16.31;55.56
22917;DHT22;11624;53.250;7.456;2023-05-14T04:27:36;16.34;55.51
22917;DHT22;11624;53.250;7.456;2023-05-14T04:30:07;16.40;55.38
22917;DHT22;11624;53.250;7.456;2023-05-14T04:32:35;16.45;55.49
22917;DHT22;11624;53.250;7.456;2023-05-14T04:35:04;16.48;55.60
22917;DHT22;11624;53.250;7.456;2023-05-14T04:37:32;16.54;55.64
22917;DHT22;11624;53.250;7.456;2023-05-14T04:40:01;16.59;55.61
22917;DHT22;11624;53.250;7.456;2023-05-14T04:42:29;16.61;55.55
22917;DHT22;11624;53.250;7.456;2023-05-14T04:44:57;16.64;55.62
22917;DHT22;11624;53.250;7.456;2023-05-14T04:47:26;16.69;55.53
22917;DHT22;11624;53.250;7.456;2023-05-14T04:49:55;16.74;55.56
22917;DHT22;11624;53.250;7.456;2023-05-14T04:52:24;16.78;55.55
22917;DHT22;11624;53.250;7.456;2023-05-14T04:54:52;16.80;55.60
22917;DHT22;11624;53.250;7.456;2023-05-14T04:57:20;16.86;55.62
22917;DHT22;11624;53.250;7.456;2023-05-14T04:59:48;16.93;55.56
22917;DHT22;11624;53.250;7.456;2023-05-14T05:02:16;16.99;55.47
22917;DHT22;11624;53.250;7.456;2023-05-14T05:04:46;17.02;55.43
22917;DHT22;11624;53.250;7.456;2023-05-14T05:07:14;17.07;55.49
22917;DHT22;11624;53.250;7.456;2023-05-14T05:09:42;17.13;55.49
22917;DHT22;11624;53.250;7.456;2023-05-14T05:12:10;17.18;55.46
22917;DHT22;11624;53.250;7.456;2023-05-14T05:14:38;17.24;55.47
22917;DHT22;11624;53.250;7.456;2023-05-14T05:17:07;17.30;55.57
22917;DHT22;11624;53.250;7.456;2023-05-14T05:19:35;17.38;55.58
22917;DHT22;11624;53.250;7.456;2023-05-14T05:22:11;17.45;55.55
22917;DHT22;11624;53.250;7.456;2023-05-14T05:24:39;17.56;55.61
22917;DHT22;11624;53.250;7.456;2023-05-14T05:27:07;17.68;55.62
22917;DHT22;11624;53.250;7.456;2023-05-14T05:29:35;17.79;55.67
22917;DHT22;11624;53.250;7.456;2023-05-14T05:32:04;17.87;55.80
22917;DHT22;11624;53.250;7.456;2023-05-14T05:34:33;17.98;55.90
22917;DHT22;11624;53.250;7.456;2023-05-14T05:37:01;18.11;55.92
22917;DHT22;11624;53.250;7.456;2023-05-14T05:39:33;18.21;55.82
22917;DHT22;11624;53.250;7.456;2023-05-14T05:42:01;18.30;55.93
22917;DHT22;11624;53.250;7.456;2023-05-14T05:44:29;18.43;55.85
22917;DHT22;11624;53.250;7.456;2023-05-14T05:46:57;18.56;55.72
22917;DHT22;11624;53.250;7.456;2023-05-14T05:49:25;18.63;55.71
22917;DHT22;11624;53.250;7.456;2023-05-14T05:51:53;18.66;55.47
22917;DHT22;11624;53.250;7.456;2023-05-14T05:54:22;18.68;55.36
22917;DHT22;11624;53.250;7.456;2023-05-14T05:56:52;18.74;55.35
22917;DHT22;11624;53.250;7.456;2023-05-14T05:59:20;18.88;55.14
22917;DHT22;11624;53.250;7.456;2023-05-14T06:01:49;18.95;55.31
22917;DHT22;11624;53.250;7.456;2023-05-14T06:04:17;19.06;55.02
22917;DHT22;11624;53.250;7.456;2023-05-14T06:06:45;19.17;54.76
22917;DHT22;11624;53.250;7.456;2023-05-14T06:09:14;19.23;54.49
22917;DHT22;11624;53.250;7.456;2023-05-14T06:11:42;19.35;54.35
22917;DHT22;11624;53.250;7.456;2023-05-14T06:14:11;19.44;53.94
22917;DHT22;11624;53.250;7.456;2023-05-14T06:16:39;19.53;53.59
22917;DHT22;11624;53.250;7.456;2023-05-14T06:19:07;19.67;53.43
22917;DHT22;11624;53.250;7.456;2023-05-14T06:21:36;19.84;52.99
22917;DHT22;11624;53.250;7.456;2023-05-14T06:24:05;19.92;52.64
22917;DHT22;11624;53.250;7.456;2023-05-14T06:26:34;20.01;52.34
22917;DHT22;11624;53.250;7.456;2023-05-14T06:29:02;20.11;51.46
22917;DHT22;11624;53.250;7.456;2023-05-14T06:31:32;20.18;51.25
22917;DHT22;11624;53.250;7.456;2023-05-14T06:34:00;20.29;50.92
22917;DHT22;11624;53.250;7.456;2023-05-14T06:36:28;20.43;51.27
22917;DHT22;11624;53.250;7.456;2023-05-14T06:38:56;20.56;50.51
22917;DHT22;11624;53.250;7.456;2023-05-14T06:41:24;20.70;50.35
22917;DHT22;11624;53.250;7.456;2023-05-14T06:43:52;20.86;49.88
22917;DHT22;11624;53.250;7.456;2023-05-14T06:46:21;20.95;49.63
22917;DHT22;11624;53.250;7.456;2023-05-14T06:48:50;21.06;49.36
22917;DHT22;11624;53.250;7.456;2023-05-14T06:51:18;21.20;49.04
22917;DHT22;11624;53.250;7.456;2023-05-14T06:53:46;21.30;49.08
22917;DHT22;11624;53.250;7.456;2023-05-14T06:56:14;21.47;48.53
22917;DHT22;11624;53.250;7.456;2023-05-14T06:58:42;21.59;47.83
22917;DHT22;11624;53.250;7.456;2023-05-14T07:01:10;21.69;47.50
22917;DHT22;11624;53.250;7.456;2023-05-14T07:03:39;21.90;47.46
22917;DHT22;11624;53.250;7.456;2023-05-14T07:06:09;22.09;47.07
22917;DHT22;11624;53.250;7.456;2023-05-14T07:08:39;22.27;46.40
22917;DHT22;11624;53.250;7.456;2023-05-14T07:11:07;22.37;45.61
22917;DHT22;11624;53.250;7.456;2023-05-14T07:13:35;22.41;45.52
22917;DHT22;11624;53.250;7.456;2023-05-14T07:16:04;22.56;45.44
22917;DHT22;11624;53.250;7.456;2023-05-14T07:18:32;22.72;44.54
22917;DHT22;11624;53.250;7.456;2023-05-14T07:21:00;22.81;44.46
22917;DHT22;11624;53.250;7.456;2023-05-14T07:23:32;23.05;43.98
22917;DHT22;11624;53.250;7.456;2023-05-14T07:26:02;23.25;44.13
22917;DHT22;11624;53.250;7.456;2023-05-14T07:28:30;23.37;42.84
22917;DHT22;11624;53.250;7.456;2023-05-14T07:30:58;23.51;42.80
22917;DHT22;11624;53.250;7.456;2023-05-14T07:33:27;23.67;42.07
22917;DHT22;11624;53.250;7.456;2023-05-14T07:35:55;23.92;41.84
22917;DHT22;11624;53.250;7.456;2023-05-14T07:38:23;24.13;40.80
22917;DHT22;11624;53.250;7.456;2023-05-14T07:40:52;24.30;40.93
22917;DHT22;11624;53.250;7.456;2023-05-14T07:43:20;24.47;40.10
22917;DHT22;11624;53.250;7.456;2023-05-14T07:45:48;24.68;39.36
22917;DHT22;11624;53.250;7.456;2023-05-14T07:48:16;24.90;37.93
22917;DHT22;11624;53.250;7.456;2023-05-14T07:50:45;25.22;37.79
22917;DHT22;11624;53.250;7.456;2023-05-14T07:53:13;25.43;36.86
22917;DHT22;11624;53.250;7.456;2023-05-14T07:55:41;25.62;36.07
22917;DHT22;11624;53.250;7.456;2023-05-14T07:58:11;25.74;36.14
22917;DHT22;11624;53.250;7.456;2023-05-14T08:00:39;26.01;36.16
22917;DHT22;11624;53.250;7.456;2023-05-14T08:03:07;26.33;35.67
22917;DHT22;11624;53.250;7.456;2023-05-14T08:05:36;26.53;34.64
22917;DHT22;11624;53.250;7.456;2023-05-14T08:08:04;26.65;33.98
22917;DHT22;11624;53.250;7.456;2023-05-14T08:10:32;26.71;34.23
22917;DHT22;11624;53.250;7.456;2023-05-14T08:13:00;26.89;33.70
22917;DHT22;11624;53.250;7.456;2023-05-14T08:15:30;27.00;33.37
22917;DHT22;11624;53.250;7.456;2023-05-14T08:17:58;27.08;31.89
22917;DHT22;11624;53.250;7.456;2023-05-14T08:20:29;26.82;31.64
22917;DHT22;11624;53.250;7.456;2023-05-14T08:22:57;27.06;33.17
22917;DHT22;11624;53.250;7.456;2023-05-14T08:25:26;27.16;31.49
22917;DHT22;11624;53.250;7.456;2023-05-14T08:27:54;27.20;31.90
22917;DHT22;11624;53.250;7.456;2023-05-14T08:30:22;27.50;31.32
22917;DHT22;11624;53.250;7.456;2023-05-14T08:32:52;27.56;30.91
22917;DHT22;11624;53.250;7.456;2023-05-14T08:35:20;27.71;31.32
22917;DHT22;11624;53.250;7.456;2023-05-14T08:37:48;27.90;30.31
22917;DHT22;11624;53.250;7.456;2023-05-14T08:40:17;28.09;30.77
22917;DHT22;11624;53.250;7.456;2023-05-14T08:42:46;27.79;30.05
22917;DHT22;11624;53.250;7.456;2023-05-14T08:45:17;27.63;30.28
22917;DHT22;11624;53.250;7.456;2023-05-14T08:47:47;27.38;30.51
22917;DHT22;11624;53.250;7.456;2023-05-14T08:50:18;27.11;31.21
22917;DHT22;11624;53.250;7.456;2023-05-14T08:52:49;27.05;32.01
22917;DHT22;11624;53.250;7.456;2023-05-14T08:55:17;27.20;32.19
22917;DHT22;11624;53.250;7.456;2023-05-14T08:57:46;27.46;31.50
22917;DHT22;11624;53.250;7.456;2023-05-14T09:00:14;27.57;31.57
22917;DHT22;11624;53.250;7.456;2023-05-14T09:02:45;27.68;31.18
22917;DHT22;11624;53.250;7.456;2023-05-14T09:05:13;27.83;31.28
22917;DHT22;11624;53.250;7.456;2023-05-14T09:07:44;27.82;30.32
22917;DHT22;11624;53.250;7.456;2023-05-14T09:10:13;27.65;30.61
22917;DHT22;11624;53.250;7.456;2023-05-14T09:12:42;27.80;30.68
22917;DHT22;11624;53.250;7.456;2023-05-14T09:15:10;27.88;30.10
22917;DHT22;11624;53.250;7.456;2023-05-14T09:17:38;27.94;30.88
22917;DHT22;11624;53.250;7.456;2023-05-14T09:20:08;27.99;30.67
22917;DHT22;11624;53.250;7.456;2023-05-14T09:22:38;28.24;31.18
22917;DHT22;11624;53.250;7.456;2023-05-14T09:25:08;28.31;30.36
22917;DHT22;11624;53.250;7.456;2023-05-14T09:27:38;28.43;29.68
22917;DHT22;11624;53.250;7.456;2023-05-14T09:30:07;28.71;30.58
22917;DHT22;11624;53.250;7.456;2023-05-14T09:32:40;29.03;31.20
22917;DHT22;11624;53.250;7.456;2023-05-14T09:35:12;29.01;27.29
22917;DHT22;11624;53.250;7.456;2023-05-14T09:37:42;28.68;26.73
22917;DHT22;11624;53.250;7.456;2023-05-14T09:40:12;28.68;27.20
22917;DHT22;11624;53.250;7.456;2023-05-14T09:42:41;28.91;27.06
22917;DHT22;11624;53.250;7.456;2023-05-14T09:45:10;29.14;26.21
22917;DHT22;11624;53.250;7.456;2023-05-14T09:47:38;29.24;26.23
22917;DHT22;11624;53.250;7.456;2023-05-14T09:50:07;29.38;26.48
22917;DHT22;11624;53.250;7.456;2023-05-14T09:52:36;29.21;24.88
22917;DHT22;11624;53.250;7.456;2023-05-14T09:55:05;29.31;24.65
22917;DHT22;11624;53.250;7.456;2023-05-14T09:57:35;29.27;25.80
22917;DHT22;11624;53.250;7.456;2023-05-14T10:00:04;29.59;27.07
22917;DHT22;11624;53.250;7.456;2023-05-14T10:02:35;29.53;25.01
22917;DHT22;11624;53.250;7.456;2023-05-14T10:05:06;29.23;25.01
22917;DHT22;11624;53.250;7.456;2023-05-14T10:07:38;29.18;25.40
22917;DHT22;11624;53.250;7.456;2023-05-14T10:10:12;29.24;26.26
22917;DHT22;11624;53.250;7.456;2023-05-14T10:12:45;29.05;26.55
22917;DHT22;11624;53.250;7.456;2023-05-14T10:15:19;29.22;27.19
22917;DHT22;11624;53.250;7.456;2023-05-14T10:17:54;29.80;25.80
22917;DHT22;11624;53.250;7.456;2023-05-14T10:20:23;30.03;25.05
22917;DHT22;11624;53.250;7.456;2023-05-14T10:22:53;30.05;24.75
22917;DHT22;11624;53.250;7.456;2023-05-14T10:25:22;29.98;25.37
22917;DHT22;11624;53.250;7.456;2023-05-14T10:27:52;30.17;25.02
22917;DHT22;11624;53.250;7.456;2023-05-14T10:30:21;30.36;24.98
22917;DHT22;11624;53.250;7.456;2023-05-14T10:33:05;30.65;25.25
22917;DHT22;11624;53.250;7.456;2023-05-14T10:35:55;30.42;25.12
22917;DHT22;11624;53.250;7.456;2023-05-14T10:38:27;30.56;25.54
22917;DHT22;11624;53.250;7.456;2023-05-14T10:40:58;31.07;25.23
22917;DHT22;11624;53.250;7.456;2023-05-14T10:43:29;31.53;24.09
22917;DHT22;11624;53.250;7.456;2023-05-14T10:45:58;31.73;23.56
22917;DHT22;11624;53.250;7.456;2023-05-14T10:48:27;31.89;22.82
22917;DHT22;11624;53.250;7.456;2023-05-14T10:50:56;32.02;23.73
22917;DHT22;11624;53.250;7.456;2023-05-14T10:53:32;32.32;23.11
22917;DHT22;11624;53.250;7.456;2023-05-14T10:56:05;32.61;22.14
22917;DHT22;11624;53.250;7.456;2023-05-14T10:58:39;32.48;20.84
22917;DHT22;11624;53.250;7.456;2023-05-14T11:01:08;32.46;20.65
22917;DHT22;11624;53.250;7.456;2023-05-14T11:03:41;32.22;20.36
22917;DHT22;11624;53.250;7.456;2023-05-14T11:06:11;31.94;20.24
22917;DHT22;11624;53.250;7.456;2023-05-14T11:08:39;31.65;21.78
22917;DHT22;11624;53.250;7.456;2023-05-14T11:11:08;31.86;22.63
22917;DHT22;11624;53.250;7.456;2023-05-14T11:13:38;32.30;21.47
22917;DHT22;11624;53.250;7.456;2023-05-14T11:16:08;32.28;21.27
22917;DHT22;11624;53.250;7.456;2023-05-14T11:18:39;32.26;21.57
22917;DHT22;11624;53.250;7.456;2023-05-14T11:21:07;32.54;22.12
22917;DHT22;11624;53.250;7.456;2023-05-14T11:23:36;32.99;21.25
22917;DHT22;11624;53.250;7.456;2023-05-14T11:26:04;32.97;20.29
22917;DHT22;11624;53.250;7.456;2023-05-14T11:28:33;33.08;20.71
22917;DHT22;11624;53.250;7.456;2023-05-14T11:31:03;32.96;20.20
22917;DHT22;11624;53.250;7.456;2023-05-14T11:33:31;32.84;19.94
22917;DHT22;11624;53.250;7.456;2023-05-14T11:35:59;32.98;20.76
22917;DHT22;11624;53.250;7.456;2023-05-14T11:38:27;33.04;19.38
22917;DHT22;11624;53.250;7.456;2023-05-14T11:40:57;32.91;19.77
22917;DHT22;11624;53.250;7.456;2023-05-14T11:43:25;32.97;19.71
22917;DHT22;11624;53.250;7.456;2023-05-14T11:45:55;32.61;19.60
22917;DHT22;11624;53.250;7.456;2023-05-14T11:48:24;32.11;20.70
22917;DHT22;11624;53.250;7.456;2023-05-14T11:50:53;31.98;21.19
22917;DHT22;11624;53.250;7.456;2023-05-14T11:53:25;31.85;21.73
22917;DHT22;11624;53.250;7.456;2023-05-14T11:55:54;31.80;21.62
22917;DHT22;11624;53.250;7.456;2023-05-14T11:58:23;31.94;20.49
22917;DHT22;11624;53.250;7.456;2023-05-14T12:00:54;31.79;21.52
22917;DHT22;11624;53.250;7.456;2023-05-14T12:03:22;31.68;20.14
22917;DHT22;11624;53.250;7.456;2023-05-14T12:05:57;31.54;20.75
22917;DHT22;11624;53.250;7.456;2023-05-14T12:08:27;31.33;20.99
22917;DHT22;11624;53.250;7.456;2023-05-14T12:10:57;31.51;20.63
22917;DHT22;11624;53.250;7.456;2023-05-14T12:13:26;31.57;19.76
22917;DHT22;11624;53.250;7.456;2023-05-14T12:15:55;31.99;20.99
22917;DHT22;11624;53.250;7.456;2023-05-14T12:18:23;32.52;20.55
22917;DHT22;11624;53.250;7.456;2023-05-14T12:20:52;32.85;19.44
22917;DHT22;11624;53.250;7.456;2023-05-14T12:23:25;33.05;19.12
22917;DHT22;11624;53.250;7.456;2023-05-14T12:25:53;32.91;18.40
22917;DHT22;11624;53.250;7.456;2023-05-14T12:28:22;32.90;19.75
22917;DHT22;11624;53.250;7.456;2023-05-14T12:30:55;32.89;20.04
22917;DHT22;11624;53.250;7.456;2023-05-14T12:33:25;33.00;19.28
22917;DHT22;11624;53.250;7.456;2023-05-14T12:35:53;33.06;20.66
22917;DHT22;11624;53.250;7.456;2023-05-14T12:38:27;33.23;19.44
22917;DHT22;11624;53.250;7.456;2023-05-14T12:40:55;33.12;18.81
22917;DHT22;11624;53.250;7.456;2023-05-14T12:43:23;33.00;18.65
22917;DHT22;11624;53.250;7.456;2023-05-14T12:45:55;32.94;19.28
22917;DHT22;11624;53.250;7.456;2023-05-14T12:48:23;33.14;19.09
22917;DHT22;11624;53.250;7.456;2023-05-14T12:50:51;33.36;19.83
22917;DHT22;11624;53.250;7.456;2023-05-14T12:53:19;33.59;18.83
22917;DHT22;11624;53.250;7.456;2023-05-14T12:55:49;33.58;18.67
22917;DHT22;11624;53.250;7.456;2023-05-14T12:58:17;33.28;17.96
22917;DHT22;11624;53.250;7.456;2023-05-14T13:00:45;33.20;18.35
22917;DHT22;11624;53.250;7.456;2023-05-14T13:03:13;33.17;18.41
22917;DHT22;11624;53.250;7.456;2023-05-14T13:05:41;33.06;18.71
22917;DHT22;11624;53.250;7.456;2023-05-14T13:08:09;32.78;16.80
22917;DHT22;11624;53.250;7.456;2023-05-14T13:10:40;32.62;17.31
22917;DHT22;11624;53.250;7.456;2023-05-14T13:13:09;32.54;18.31
22917;DHT22;11624;53.250;7.456;2023-05-14T13:15:38;32.75;19.59
22917;DHT22;11624;53.250;7.456;2023-05-14T13:18:06;33.14;18.99
22917;DHT22;11624;53.250;7.456;2023-05-14T13:20:34;33.32;17.94
22917;DHT22;11624;53.250;7.456;2023-05-14T13:23:03;32.72;18.51
22917;DHT22;11624;53.250;7.456;2023-05-14T13:25:31;32.35;18.86
22917;DHT22;11624;53.250;7.456;2023-05-14T13:27:59;32.22;19.40
22917;DHT22;11624;53.250;7.456;2023-05-14T13:30:28;32.09;20.58
22917;DHT22;11624;53.250;7.456;2023-05-14T13:32:58;31.95;19.62
22917;DHT22;11624;53.250;7.456;2023-05-14T13:35:26;31.68;18.97
22917;DHT22;11624;53.250;7.456;2023-05-14T13:37:54;31.39;19.51
22917;DHT22;11624;53.250;7.456;2023-05-14T13:40:22;31.30;21.23
22917;DHT22;11624;53.250;7.456;2023-05-14T13:42:50;31.39;20.88
22917;DHT22;11624;53.250;7.456;2023-05-14T13:45:18;31.11;20.06
22917;DHT22;11624;53.250;7.456;2023-05-14T13:47:48;31.24;21.27
22917;DHT22;11624;53.250;7.456;2023-05-14T13:50:17;31.57;22.00
22917;DHT22;11624;53.250;7.456;2023-05-14T13:52:46;31.85;21.61
22917;DHT22;11624;53.250;7.456;2023-05-14T13:55:14;31.89;21.46
22917;DHT22;11624;53.250;7.456;2023-05-14T13:57:43;31.87;20.66
22917;DHT22;11624;53.250;7.456;2023-05-14T14:00:12;31.90;21.59
22917;DHT22;11624;53.250;7.456;2023-05-14T14:02:41;31.84;21.80
22917;DHT22;11624;53.250;7.456;2023-05-14T14:05:10;31.73;21.72
22917;DHT22;11624;53.250;7.456;2023-05-14T14:07:39;31.82;21.60
22917;DHT22;11624;53.250;7.456;2023-05-14T14:10:08;31.83;20.68
22917;DHT22;11624;53.250;7.456;2023-05-14T14:12:36;31.74;20.60
22917;DHT22;11624;53.250;7.456;2023-05-14T14:15:05;31.73;20.80
22917;DHT22;11624;53.250;7.456;2023-05-14T14:17:34;31.71;20.05
22917;DHT22;11624;53.250;7.456;2023-05-14T14:20:03;31.55;20.12
22917;DHT22;11624;53.250;7.456;2023-05-14T14:22:46;31.40;20.89
22917;DHT22;11624;53.250;7.456;2023-05-14T14:25:17;31.42;20.58
22917;DHT22;11624;53.250;7.456;2023-05-14T14:27:45;31.35;20.48
22917;DHT22;11624;53.250;7.456;2023-05-14T14:30:15;31.38;21.71
22917;DHT22;11624;53.250;7.456;2023-05-14T14:32:43;31.57;22.18
22917;DHT22;11624;53.250;7.456;2023-05-14T14:35:13;31.67;20.72
22917;DHT22;11624;53.250;7.456;2023-05-14T14:37:43;31.64;19.95
22917;DHT22;11624;53.250;7.456;2023-05-14T14:40:15;31.58;21.27
22917;DHT22;11624;53.250;7.456;2023-05-14T14:42:43;31.63;20.31
22917;DHT22;11624;53.250;7.456;2023-05-14T14:45:12;31.71;21.69
22917;DHT22;11624;53.250;7.456;2023-05-14T14:47:43;31.66;20.94
22917;DHT22;11624;53.250;7.456;2023-05-14T14:50:11;31.60;21.55
22917;DHT22;11624;53.250;7.456;2023-05-14T14:52:40;31.59;21.71
22917;DHT22;11624;53.250;7.456;2023-05-14T14:55:12;31.51;22.56
22917;DHT22;11624;53.250;7.456;2023-05-14T14:57:41;31.53;23.83
22917;DHT22;11624;53.250;7.456;2023-05-14T15:00:10;31.54;23.04
22917;DHT22;11624;53.250;7.456;2023-05-14T15:02:38;31.44;22.95
22917;DHT22;11624;53.250;7.456;2023-05-14T15:05:08;31.34;23.14
22917;DHT22;11624;53.250;7.456;2023-05-14T15:07:36;31.35;23.34
22917;DHT22;11624;53.250;7.456;2023-05-14T15:10:05;31.37;23.21
22917;DHT22;11624;53.250;7.456;2023-05-14T15:12:35;31.34;23.49
22917;DHT22;11624;53.250;7.456;2023-05-14T15:15:04;31.33;24.37
22917;DHT22;11624;53.250;7.456;2023-05-14T15:17:32;31.30;23.16
22917;DHT22;11624;53.250;7.456;2023-05-14T15:20:00;31.26;23.27
22917;DHT22;11624;53.250;7.456;2023-05-14T15:22:28;31.29;23.10
22917;DHT22;11624;53.250;7.456;2023-05-14T15:24:56;31.34;23.19
22917;DHT22;11624;53.250;7.456;2023-05-14T15:27:25;31.27;22.72
22917;DHT22;11624;53.250;7.456;2023-05-14T15:29:54;31.15;22.28
22917;DHT22;11624;53.250;7.456;2023-05-14T15:32:23;31.09;23.11
22917;DHT22;11624;53.250;7.456;2023-05-14T15:34:52;31.07;22.86
22917;DHT22;11624;53.250;7.456;2023-05-14T15:37:22;31.11;23.17
22917;DHT22;11624;53.250;7.456;2023-05-14T15:39:50;31.24;23.88
22917;DHT22;11624;53.250;7.456;2023-05-14T15:42:18;31.42;22.80